createdAt,value
2019-05-21T00:01:40.853Z,96286.59
2019-05-21T00:04:07.740Z,96280.84
2019-05-21T00:06:34.320Z,96278.38
2019-05-21T00:09:05.909Z,96283.06
2019-05-21T00:11:32.678Z,96277.88
2019-05-21T00:13:59.341Z,96278.75
2019-05-21T00:16:28.293Z,96285.38
2019-05-21T00:18:55.169Z,96275.80
2019-05-21T00:21:21.875Z,96275.13
2019-05-21T00:23:50.484Z,96273.27
2019-05-21T00:26:17.332Z,96270.52
2019-05-21T00:28:44.360Z,96270.50
2019-05-21T00:31:12.836Z,96271.67
2019-05-21T00:33:40.627Z,96266.59
2019-05-21T00:36:07.294Z,96267.35
2019-05-21T00:38:36.132Z,96261.63
2019-05-21T00:41:02.704Z,96265.20
2019-05-21T00:43:29.296Z,96268.98
2019-05-21T00:45:58.681Z,96265.20
2019-05-21T00:48:25.283Z,96271.06
2019-05-21T00:50:55.227Z,96271.77
2019-05-21T00:53:27.448Z,96281.48
2019-05-21T00:55:54.093Z,96273.70
2019-05-21T00:58:20.703Z,96275.42
2019-05-21T01:00:49.788Z,96268.23
2019-05-21T01:03:16.381Z,96274.59
2019-05-21T01:05:42.985Z,96271.11
2019-05-21T01:08:12.426Z,96283.53
2019-05-21T01:10:39.294Z,96274.81
2019-05-21T01:13:06.092Z,96275.25
2019-05-21T01:15:34.550Z,96279.47
2019-05-21T01:18:01.147Z,96277.72
2019-05-21T01:20:28.010Z,96282.89
2019-05-21T01:22:56.637Z,96277.78
2019-05-21T01:25:23.811Z,96286.33
2019-05-21T01:27:50.473Z,96278.56
2019-05-21T01:30:18.980Z,96284.57
2019-05-21T01:32:45.674Z,96282.63
2019-05-21T01:35:17.120Z,96277.59
2019-05-21T01:37:42.598Z,96281.75
2019-05-21T01:40:09.188Z,96278.83
2019-05-21T01:42:35.777Z,96274.20
2019-05-21T01:45:05.146Z,96276.84
2019-05-21T01:47:31.706Z,96284.34
2019-05-21T01:49:58.303Z,96288.67
2019-05-21T01:52:26.864Z,96288.34
2019-05-21T01:54:53.472Z,96299.72
2019-05-21T01:57:20.066Z,96298.52
2019-05-21T01:59:48.749Z,96299.90
2019-05-21T02:02:15.330Z,96299.03
2019-05-21T02:04:41.917Z,96301.66
2019-05-21T02:07:10.533Z,96295.89
2019-05-21T02:09:37.128Z,96295.85
2019-05-21T02:12:04.271Z,96300.27
2019-05-21T02:14:36.831Z,96300.44
2019-05-21T02:17:04.734Z,96303.20
2019-05-21T02:19:31.353Z,96298.80
2019-05-21T02:21:59.442Z,96301.64
2019-05-21T02:24:26.042Z,96303.40
2019-05-21T02:26:52.888Z,96308.44
2019-05-21T02:29:22.224Z,96303.22
2019-05-21T02:31:49.854Z,96302.91
2019-05-21T02:34:16.729Z,96306.40
2019-05-21T02:36:45.635Z,96309.02
2019-05-21T02:39:13.230Z,96305.37
2019-05-21T02:41:44.022Z,96306.67
2019-05-21T02:46:46.408Z,96309.92
2019-05-21T02:49:13.246Z,96315.09
2019-05-21T02:51:43.473Z,96315.66
2019-05-21T02:54:10.351Z,96315.62
2019-05-21T02:56:37.273Z,96321.71
2019-05-21T02:59:06.369Z,96321.59
2019-05-21T03:01:33.290Z,96321.05
2019-05-21T03:03:59.853Z,96319.59
2019-05-21T03:06:28.726Z,96317.78
2019-05-21T03:08:55.581Z,96316.55
2019-05-21T03:11:22.170Z,96320.25
2019-05-21T03:13:50.737Z,96314.43
2019-05-21T03:16:17.601Z,96316.90
2019-05-21T03:18:44.184Z,96320.17
2019-05-21T03:21:16.198Z,96320.03
2019-05-21T03:23:42.793Z,96322.11
2019-05-21T03:26:09.738Z,96320.66
2019-05-21T03:28:38.850Z,96321.67
2019-05-21T03:31:05.715Z,96324.67
2019-05-21T03:33:32.574Z,96335.62
2019-05-21T03:36:01.363Z,96334.86
2019-05-21T03:38:28.210Z,96337.03
2019-05-21T03:40:55.074Z,96335.62
2019-05-21T03:43:24.057Z,96337.20
2019-05-21T03:45:51.894Z,96335.41
2019-05-21T03:48:18.484Z,96332.69
2019-05-21T03:50:50.516Z,96331.78
2019-05-21T03:53:17.107Z,96333.22
2019-05-21T03:55:43.702Z,96338.06
2019-05-21T03:58:12.714Z,96337.31
2019-05-21T04:00:39.319Z,96339.05
2019-05-21T04:03:06.170Z,96339.50
2019-05-21T04:05:36.712Z,96343.70
2019-05-21T04:08:04.402Z,96332.59
2019-05-21T04:10:31.267Z,96335.66
2019-05-21T04:12:59.945Z,96342.39
2019-05-21T04:15:26.534Z,96341.77
2019-05-21T04:17:53.385Z,96345.13
2019-05-21T04:20:21.886Z,96350.75
2019-05-21T04:22:48.752Z,96347.00
2019-05-21T04:25:15.460Z,96345.17
2019-05-21T04:27:44.171Z,96350.07
2019-05-21T04:30:11.542Z,96343.14
2019-05-21T04:32:39.246Z,96342.15
2019-05-21T04:35:08.486Z,96342.66
2019-05-21T04:37:35.143Z,96344.36
2019-05-21T04:40:01.835Z,96339.64
2019-05-21T04:42:31.508Z,96345.34
2019-05-21T04:44:58.111Z,96339.83
2019-05-21T04:47:24.981Z,96349.36
2019-05-21T04:49:53.720Z,96342.30
2019-05-21T04:52:20.609Z,96338.92
2019-05-21T04:54:47.214Z,96338.07
2019-05-21T04:57:16.188Z,96339.30
2019-05-21T04:59:42.806Z,96345.06
2019-05-21T05:02:09.854Z,96349.44
2019-05-21T05:04:38.605Z,96349.27
2019-05-21T05:07:05.202Z,96351.42
2019-05-21T05:09:32.068Z,96354.88
2019-05-21T05:12:01.414Z,96350.42
2019-05-21T05:14:28.284Z,96343.00
2019-05-21T05:16:54.883Z,96347.06
2019-05-21T05:19:23.848Z,96347.08
2019-05-21T05:21:50.456Z,96350.81
2019-05-21T05:24:17.142Z,96350.74
2019-05-21T05:26:45.883Z,96350.16
2019-05-21T05:29:12.484Z,96348.19
2019-05-21T05:31:39.102Z,96348.35
2019-05-21T05:34:07.879Z,96348.38
2019-05-21T05:36:34.614Z,96350.54
2019-05-21T05:39:01.253Z,96343.86
2019-05-21T05:41:31.740Z,96343.27
2019-05-21T05:43:58.505Z,96341.77
2019-05-21T05:46:25.094Z,96341.59
2019-05-21T05:48:53.954Z,96343.28
2019-05-21T05:51:20.852Z,96337.87
2019-05-21T05:53:47.443Z,96340.72
2019-05-21T05:56:16.417Z,96342.57
2019-05-21T05:58:44.659Z,96351.72
2019-05-21T06:01:11.270Z,96350.89
2019-05-21T06:03:40.036Z,96351.94
2019-05-21T06:06:06.924Z,96359.30
2019-05-21T06:08:33.504Z,96358.22
2019-05-21T06:11:02.656Z,96361.49
2019-05-21T06:13:29.318Z,96365.03
2019-05-21T06:15:55.912Z,96365.91
2019-05-21T06:18:24.690Z,96369.29
2019-05-21T06:20:51.433Z,96373.55
2019-05-21T06:23:18.308Z,96369.77
2019-05-21T06:25:47.014Z,96371.34
2019-05-21T06:28:13.901Z,96375.34
2019-05-21T06:30:40.486Z,96375.34
2019-05-21T06:33:09.677Z,96373.59
2019-05-21T06:35:36.327Z,96382.65
2019-05-21T06:38:16.484Z,96380.20
2019-05-21T06:40:33.582Z,96377.98
2019-05-21T06:43:00.170Z,96382.20
2019-05-21T06:45:27.048Z,96384.02
2019-05-21T06:47:55.836Z,96376.96
2019-05-21T06:50:22.753Z,96379.36
2019-05-21T06:52:49.352Z,96381.59
2019-05-21T06:55:18.229Z,96383.84
2019-05-21T06:57:44.958Z,96380.60
2019-05-21T07:02:40.427Z,96385.94
2019-05-21T07:07:33.464Z,96393.64
2019-05-21T07:12:34.615Z,96396.58
2019-05-21T07:15:01.216Z,96397.55
2019-05-21T07:17:28.312Z,96406.87
2019-05-21T07:19:57.489Z,96400.92
2019-05-21T07:22:24.183Z,96402.64
2019-05-21T07:24:50.781Z,96406.62
2019-05-21T07:27:19.370Z,96405.08
2019-05-21T07:29:46.043Z,96403.28
2019-05-21T07:32:12.628Z,96403.87
2019-05-21T07:34:42.345Z,96412.03
2019-05-21T07:37:09.041Z,96405.86
2019-05-21T07:39:35.922Z,96411.78
2019-05-21T07:42:06.093Z,96420.19
2019-05-21T07:44:32.956Z,96430.89
2019-05-21T07:46:59.652Z,96420.59
2019-05-21T07:49:28.494Z,96420.69
2019-05-21T07:51:55.095Z,96421.93
2019-05-21T07:54:21.675Z,96425.98
2019-05-21T07:56:50.446Z,96420.17
2019-05-21T07:59:17.113Z,96426.08
2019-05-21T08:01:43.718Z,96429.53
2019-05-21T08:04:12.303Z,96428.07
2019-05-21T08:06:38.973Z,96430.67
2019-05-21T08:09:13.498Z,96425.11
2019-05-21T08:11:36.438Z,96430.48
2019-05-21T08:14:03.397Z,96430.65
2019-05-21T08:16:30.021Z,96433.30
2019-05-21T08:19:04.170Z,96437.14
2019-05-21T08:21:30.802Z,96432.35
2019-05-21T08:23:57.408Z,96437.07
2019-05-21T08:26:26.625Z,96443.17
2019-05-21T08:28:53.453Z,96445.62
2019-05-21T08:31:20.232Z,96444.56
2019-05-21T08:33:48.848Z,96447.21
2019-05-21T08:36:15.565Z,96449.87
2019-05-21T08:38:42.177Z,96455.89
2019-05-21T08:41:10.862Z,96453.41
2019-05-21T08:43:37.681Z,96458.57
2019-05-21T08:46:04.270Z,96461.03
2019-05-21T08:51:09.167Z,96457.37
2019-05-21T08:53:36.069Z,96458.08
2019-05-21T08:56:04.798Z,96460.04
2019-05-21T08:58:31.670Z,96458.19
2019-05-21T09:00:58.296Z,96456.45
2019-05-21T09:03:27.326Z,96464.75
2019-05-21T09:05:54.223Z,96464.38
2019-05-21T09:08:20.810Z,96465.28
2019-05-21T09:10:49.446Z,96465.95
2019-05-21T09:13:17.989Z,96465.78
2019-05-21T09:15:44.623Z,96468.88
2019-05-21T09:18:13.636Z,96470.41
2019-05-21T09:20:40.488Z,96475.36
2019-05-21T09:23:07.300Z,96472.02
2019-05-21T09:25:36.193Z,96476.49
2019-05-21T09:28:02.769Z,96475.97
2019-05-21T09:30:29.554Z,96477.06
2019-05-21T09:35:30.133Z,96475.33
2019-05-21T09:37:56.982Z,96478.48
2019-05-21T09:40:23.587Z,96477.94
2019-05-21T09:42:52.953Z,96486.80
2019-05-21T09:45:19.525Z,96481.42
2019-05-21T09:47:46.395Z,96487.16
2019-05-21T09:50:15.996Z,96480.37
2019-05-21T09:52:42.859Z,96491.26
2019-05-21T09:55:09.662Z,96493.69
2019-05-21T09:57:38.573Z,96493.58
2019-05-21T10:00:05.193Z,96488.93
2019-05-21T10:02:32.087Z,96497.15
2019-05-21T10:05:00.978Z,96496.50
2019-05-21T10:07:38.911Z,96495.27
2019-05-21T10:09:55.902Z,96493.67
2019-05-21T10:12:24.666Z,96492.88
2019-05-21T10:14:51.477Z,96491.55
2019-05-21T10:17:18.084Z,96497.45
2019-05-21T10:19:47.146Z,96498.10
2019-05-21T10:22:14.068Z,96500.20
2019-05-21T10:24:40.709Z,96495.61
2019-05-21T10:27:09.546Z,96504.06
2019-05-21T10:29:36.277Z,96493.44
2019-05-21T10:32:03.046Z,96502.13
2019-05-21T10:34:32.192Z,96501.95
2019-05-21T10:36:58.811Z,96503.90
2019-05-21T10:39:25.504Z,96504.30
2019-05-21T10:41:54.494Z,96505.23
2019-05-21T10:44:21.241Z,96509.20
2019-05-21T10:46:47.824Z,96506.98
2019-05-21T10:49:16.845Z,96515.46
2019-05-21T10:51:43.701Z,96514.48
2019-05-21T10:54:10.296Z,96514.91
2019-05-21T10:56:47.790Z,96516.30
2019-05-21T10:59:08.288Z,96519.15
2019-05-21T11:01:34.984Z,96517.86
2019-05-21T11:04:03.945Z,96525.42
2019-05-21T11:06:30.852Z,96522.00
2019-05-21T11:08:57.450Z,96529.27
2019-05-21T11:11:28.261Z,96528.48
2019-05-21T11:13:54.899Z,96536.12
2019-05-21T11:16:21.476Z,96533.27
2019-05-21T11:18:50.310Z,96531.30
2019-05-21T11:21:16.933Z,96535.59
2019-05-21T11:23:43.832Z,96533.59
2019-05-21T11:26:12.832Z,96537.06
2019-05-21T11:28:39.714Z,96539.50
2019-05-21T11:31:06.292Z,96535.92
2019-05-21T11:33:35.655Z,96538.69
2019-05-21T11:36:02.548Z,96537.61
2019-05-21T11:38:39.541Z,96540.44
2019-05-21T11:41:00.218Z,96536.37
2019-05-21T11:43:26.819Z,96541.58
2019-05-21T11:45:53.479Z,96547.36
2019-05-21T11:48:22.569Z,96557.09
2019-05-21T11:50:49.468Z,96551.62
2019-05-21T11:53:16.048Z,96553.89
2019-05-21T11:55:44.975Z,96554.88
2019-05-21T11:58:11.564Z,96558.63
2019-05-21T12:00:38.429Z,96557.50
2019-05-21T12:03:07.990Z,96556.59
2019-05-21T12:05:34.588Z,96558.03
2019-05-21T12:08:01.176Z,96560.86
2019-05-21T12:10:30.856Z,96562.89
2019-05-21T12:12:57.681Z,96559.09
2019-05-21T12:15:25.298Z,96560.05
2019-05-21T12:17:54.081Z,96567.19
2019-05-21T12:20:35.373Z,96565.98
2019-05-21T12:22:49.355Z,96567.92
2019-05-21T12:25:18.625Z,96563.66
2019-05-21T12:27:45.489Z,96564.39
2019-05-21T12:30:12.138Z,96572.25
2019-05-21T12:32:41.576Z,96579.88
2019-05-21T12:35:08.737Z,96576.24
2019-05-21T12:37:35.998Z,96580.27
2019-05-21T12:40:04.865Z,96576.95
2019-05-21T12:42:31.609Z,96580.02
2019-05-21T12:44:58.487Z,96579.61
2019-05-21T12:47:27.453Z,96583.39
2019-05-21T12:49:54.326Z,96584.12
2019-05-21T12:52:20.977Z,96588.56
2019-05-21T12:54:49.589Z,96590.00
2019-05-21T12:57:16.092Z,96588.39
2019-05-21T12:59:42.621Z,96588.54
2019-05-21T13:04:44.342Z,96591.77
2019-05-21T13:07:10.878Z,96590.09
2019-05-21T13:09:37.383Z,96598.39
2019-05-21T13:12:05.510Z,96594.06
2019-05-21T13:14:32.024Z,96596.22
2019-05-21T13:16:58.527Z,96596.60
2019-05-21T13:19:27.950Z,96598.91
2019-05-21T13:21:54.985Z,96592.14
2019-05-21T13:24:21.868Z,96600.73
2019-05-21T13:26:52.222Z,96603.05
2019-05-21T13:29:20.378Z,96602.05
2019-05-21T13:31:47.243Z,96608.91
2019-05-21T13:37:06.421Z,96613.81
2019-05-21T13:39:48.850Z,96620.56
2019-05-21T13:42:01.998Z,96621.17
2019-05-21T13:44:30.736Z,96616.80
2019-05-21T13:46:57.599Z,96624.79
2019-05-21T13:49:24.200Z,96616.95
2019-05-21T13:51:56.718Z,96620.65
2019-05-21T13:54:25.534Z,96619.95
2019-05-21T13:56:57.108Z,96617.40
2019-05-21T13:59:26.655Z,96616.83
2019-05-21T14:01:56.342Z,96613.98
2019-05-21T14:04:23.627Z,96610.29
2019-05-21T14:09:25.712Z,96618.17
2019-05-21T14:11:52.847Z,96616.83
2019-05-21T14:14:28.236Z,96614.15
2019-05-21T14:16:55.489Z,96620.44
2019-05-21T14:19:24.968Z,96626.14
2019-05-21T14:21:57.421Z,96626.14
2019-05-21T14:24:25.340Z,96627.91
2019-05-21T14:26:52.841Z,96626.29
2019-05-21T14:29:23.945Z,96626.81
2019-05-21T14:31:51.417Z,96622.84
2019-05-21T14:34:19.318Z,96626.81
2019-05-21T14:41:55.264Z,96627.45
2019-05-21T14:44:22.293Z,96625.66
2019-05-21T14:46:57.224Z,96628.49
2019-05-21T14:52:06.247Z,96625.52
2019-05-21T14:54:30.387Z,96621.80
2019-05-21T14:57:05.309Z,96627.48
2019-05-21T14:59:37.481Z,96628.14
2019-05-21T15:02:03.718Z,96627.06
2019-05-21T15:12:14.016Z,96633.20
2019-05-21T15:14:43.290Z,96627.69
2019-05-21T15:17:10.784Z,96626.14
2019-05-21T15:22:13.223Z,96626.84
2019-05-21T15:24:41.308Z,96625.45
2019-05-21T15:27:09.335Z,96629.89
2019-05-21T15:29:39.215Z,96623.48
2019-05-21T15:32:06.264Z,96622.05
2019-05-21T15:34:35.871Z,96624.25
2019-05-21T15:37:05.387Z,96626.41
2019-05-21T15:39:32.710Z,96629.25
2019-05-21T15:42:03.220Z,96627.02
2019-05-21T15:47:05.504Z,96626.77
2019-05-21T15:49:36.200Z,96631.50
2019-05-21T15:52:10.165Z,96627.05
2019-05-21T15:54:36.325Z,96630.41
2019-05-21T15:57:03.434Z,96625.31
2019-05-21T15:59:35.051Z,96623.85
2019-05-21T16:02:04.473Z,96621.78
2019-05-21T16:04:31.147Z,96621.02
2019-05-21T16:07:04.911Z,96622.06
2019-05-21T16:09:32.722Z,96619.70
2019-05-21T16:12:01.996Z,96623.95
2019-05-21T16:14:32.710Z,96623.79
2019-05-21T16:17:01.490Z,96627.23
2019-05-21T16:19:29.461Z,96629.47
2019-05-21T16:27:07.934Z,96621.98
2019-05-21T16:29:37.180Z,96619.22
2019-05-21T16:32:04.261Z,96620.50
2019-05-21T16:34:33.748Z,96618.23
2019-05-21T16:37:01.181Z,96620.33
2019-05-21T16:39:28.282Z,96621.19
2019-05-21T16:44:31.439Z,96617.16
2019-05-21T16:47:00.888Z,96621.83
2019-05-21T16:49:28.412Z,96621.80
2019-05-21T16:51:58.424Z,96623.48
2019-05-21T16:54:25.787Z,96617.64
2019-05-21T16:56:54.460Z,96624.08
2019-05-21T16:59:28.249Z,96625.31
2019-05-21T17:01:55.518Z,96628.58
2019-05-21T17:04:22.921Z,96631.02
2019-05-21T17:09:39.063Z,96634.56
2019-05-21T17:12:05.535Z,96633.63
2019-05-21T17:19:41.739Z,96625.80
2019-05-21T17:22:10.889Z,96627.17
2019-05-21T17:24:46.580Z,96632.42
2019-05-21T17:27:16.766Z,96634.05
2019-05-21T17:29:44.082Z,96629.31
2019-05-21T17:34:46.783Z,96630.20
2019-05-21T17:37:14.307Z,96635.67
2019-05-21T17:39:41.310Z,96635.72
2019-05-21T17:42:15.933Z,96631.77
2019-05-21T17:44:43.601Z,96639.55
2019-05-21T17:47:19.492Z,96638.80
2019-05-21T17:49:49.444Z,96639.41
2019-05-21T17:52:16.941Z,96637.52
2019-05-21T17:54:56.329Z,96634.56
2019-05-21T17:57:15.273Z,96647.50
2019-05-21T17:59:41.991Z,96644.92
2019-05-21T18:02:08.628Z,96657.80
2019-05-21T18:09:44.032Z,96657.95
2019-05-21T18:12:10.618Z,96660.13
2019-05-21T18:14:37.219Z,96665.48
2019-05-21T18:17:07.904Z,96663.60
2019-05-21T18:19:34.498Z,96659.70
2019-05-21T18:22:01.098Z,96668.30
2019-05-21T18:24:29.756Z,96664.30
2019-05-21T18:26:56.389Z,96662.47
2019-05-21T18:29:23.192Z,96672.38
2019-05-21T18:31:56.450Z,96680.66
2019-05-21T18:34:23.158Z,96676.95
2019-05-21T18:36:49.766Z,96676.95
2019-05-21T18:39:18.970Z,96680.42
2019-05-21T18:41:45.556Z,96678.28
2019-05-21T18:44:12.138Z,96686.56
2019-05-21T18:46:40.869Z,96686.84
2019-05-21T18:49:07.461Z,96688.69
2019-05-21T18:51:34.055Z,96697.55
2019-05-21T18:54:02.564Z,96698.34
2019-05-21T18:56:29.182Z,96697.56
2019-05-21T18:58:55.755Z,96697.31
2019-05-21T19:01:25.768Z,96703.99
2019-05-21T19:03:52.441Z,96708.01
2019-05-21T19:06:19.028Z,96712.31
2019-05-21T19:08:48.050Z,96715.27
2019-05-21T19:11:14.636Z,96724.09
2019-05-21T19:13:41.243Z,96722.75
2019-05-21T19:16:11.708Z,96729.42
2019-05-21T19:18:38.283Z,96739.33
2019-05-21T19:21:04.865Z,96735.29
2019-05-21T19:28:40.453Z,96749.19
2019-05-21T19:31:07.043Z,96749.98
2019-05-21T19:33:35.870Z,96751.30
2019-05-21T19:36:03.463Z,96753.45
2019-05-21T19:38:30.055Z,96760.64
2019-05-21T19:41:01.575Z,96755.86
2019-05-21T19:43:28.179Z,96764.93
2019-05-21T19:45:54.777Z,96771.06
2019-05-21T19:48:27.062Z,96769.47
2019-05-21T19:51:00.129Z,96769.75
2019-05-21T19:53:25.150Z,96778.84
2019-05-21T19:55:53.505Z,96772.69
2019-05-21T19:58:20.362Z,96774.53
2019-05-21T20:00:46.959Z,96776.11
2019-05-21T20:21:00.914Z,96781.91
2019-05-21T20:23:27.776Z,96780.67
2019-05-21T20:25:56.951Z,96782.96
2019-05-21T20:28:26.378Z,96784.61
2019-05-21T20:30:54.001Z,96781.34
2019-05-21T20:33:20.866Z,96784.45
2019-05-21T20:40:54.237Z,96784.75
2019-05-21T20:43:21.112Z,96788.84
2019-05-21T20:45:47.716Z,96788.04
2019-05-21T20:50:51.834Z,96784.75
2019-05-21T20:53:19.470Z,96790.09
2019-05-21T20:55:47.091Z,96790.48
2019-05-21T20:58:16.021Z,96788.98
2019-05-21T21:00:43.670Z,96796.32
2019-05-21T21:03:11.658Z,96794.78
2019-05-21T21:05:41.051Z,96797.79
2019-05-21T21:08:07.901Z,96791.45
2019-05-21T21:10:34.579Z,96795.91
2019-05-21T21:13:04.087Z,96798.37
2019-05-21T21:15:30.674Z,96803.27
2019-05-21T21:17:57.571Z,96809.56
2019-05-21T21:20:29.611Z,96806.28
2019-05-21T21:22:57.572Z,96811.05
2019-05-21T21:25:25.289Z,96811.53
2019-05-21T21:27:55.145Z,96810.55
2019-05-21T21:30:22.761Z,96805.17
2019-05-21T21:32:49.344Z,96809.42
2019-05-21T21:35:19.541Z,96810.20
2019-05-21T21:37:46.417Z,96809.16
2019-05-21T21:40:14.022Z,96810.39
2019-05-21T21:42:43.175Z,96809.27
2019-05-21T21:45:09.827Z,96812.38
2019-05-21T21:47:36.397Z,96808.48
2019-05-21T21:50:05.760Z,96809.05
2019-05-21T21:52:32.335Z,96813.54
2019-05-21T21:54:59.987Z,96812.98
2019-05-21T21:57:30.036Z,96814.78
2019-05-21T21:59:57.606Z,96816.42
2019-05-21T22:02:25.257Z,96815.05
2019-05-21T22:04:57.439Z,96814.31
2019-05-21T22:07:25.042Z,96809.27
2019-05-21T22:09:52.675Z,96819.70
2019-05-21T22:12:25.743Z,96813.06
2019-05-21T22:14:52.672Z,96811.96
2019-05-21T22:17:20.272Z,96802.19
2019-05-21T22:19:48.798Z,96807.91
2019-05-21T22:22:16.463Z,96807.87
2019-05-21T22:24:43.213Z,96806.61
2019-05-21T22:27:13.104Z,96792.58
2019-05-21T22:29:39.986Z,96801.81
2019-05-21T22:32:07.555Z,96800.19
2019-05-21T22:37:08.041Z,96798.63
2019-05-21T22:39:36.044Z,96800.77
2019-05-21T22:42:04.904Z,96796.44
2019-05-21T22:44:32.489Z,96806.63
2019-05-21T22:47:00.367Z,96803.88
2019-05-21T22:49:33.985Z,96799.89
2019-05-21T22:52:01.002Z,96802.48
2019-05-21T22:54:27.595Z,96804.61
2019-05-21T22:56:56.264Z,96806.38
2019-05-21T22:59:23.095Z,96804.55
2019-05-21T23:01:49.755Z,96801.02
2019-05-21T23:04:18.209Z,96806.34
2019-05-21T23:06:44.791Z,96806.61
2019-05-21T23:09:11.376Z,96804.74
2019-05-21T23:11:41.122Z,96807.34
2019-05-21T23:14:07.829Z,96798.50
2019-05-21T23:16:34.420Z,96799.89
2019-05-21T23:19:02.978Z,96797.80
2019-05-21T23:21:29.841Z,96801.60
2019-05-21T23:23:56.442Z,96795.91
2019-05-21T23:26:25.308Z,96797.12
2019-05-21T23:28:51.905Z,96799.78
2019-05-21T23:31:18.823Z,96799.14
2019-05-21T23:33:47.586Z,96800.84
2019-05-21T23:36:14.167Z,96797.89
2019-05-21T23:38:40.758Z,96799.82
2019-05-21T23:41:09.392Z,96802.55
2019-05-21T23:43:36.263Z,96802.78
2019-05-21T23:46:03.000Z,96805.20
2019-05-21T23:48:32.112Z,96799.55
2019-05-21T23:50:58.944Z,96798.94
2019-05-21T23:53:25.607Z,96801.72
2019-05-21T23:55:54.271Z,96798.72
2019-05-21T23:58:20.969Z,96805.59
